createdAt,value
2023-02-27T00:00:19.266Z,96296.34
2023-02-27T00:02:47.994Z,96288.94
2023-02-27T00:05:15.846Z,96293.50
2023-02-27T00:07:42.939Z,96293.50
2023-02-27T00:10:14.402Z,96297.47
2023-02-27T00:12:41.779Z,96300.88
2023-02-27T00:15:10.295Z,96307.28
2023-02-27T00:17:38.086Z,96312.44
2023-02-27T00:20:07.706Z,96305.03
2023-02-27T00:22:34.615Z,96309.22
2023-02-27T00:25:01.558Z,96311.97
2023-02-27T00:27:28.827Z,96311.00
2023-02-27T00:29:56.037Z,96317.94
2023-02-27T00:32:23.052Z,96321.50
2023-02-27T00:34:50.124Z,96321.97
2023-02-27T00:37:18.138Z,96320.09
2023-02-27T00:39:45.045Z,96322.66
2023-02-27T00:42:12.014Z,96324.72
2023-02-27T00:44:39.274Z,96319.00
2023-02-27T00:47:07.207Z,96317.59
2023-02-27T00:49:34.253Z,96318.75
2023-02-27T00:52:01.434Z,96314.38
2023-02-27T00:54:28.562Z,96315.03
2023-02-27T00:56:55.471Z,96320.53
2023-02-27T00:59:22.671Z,96321.16
2023-02-27T01:01:49.661Z,96313.25
2023-02-27T01:04:16.585Z,96315.38
2023-02-27T01:06:43.626Z,96312.53
2023-02-27T01:09:10.586Z,96316.34
2023-02-27T01:11:37.848Z,96314.72
2023-02-27T01:14:05.031Z,96322.03
2023-02-27T01:16:32.609Z,96310.75
2023-02-27T01:18:59.951Z,96311.72
2023-02-27T01:21:27.219Z,96310.91
2023-02-27T01:23:54.296Z,96319.56
2023-02-27T01:26:21.306Z,96318.03
2023-02-27T01:28:48.386Z,96323.56
2023-02-27T01:31:15.950Z,96316.97
2023-02-27T01:33:42.953Z,96322.84
2023-02-27T01:36:10.628Z,96316.78
2023-02-27T01:38:37.583Z,96320.25
2023-02-27T01:41:07.412Z,96328.88
2023-02-27T01:43:34.914Z,96318.09
2023-02-27T01:46:01.917Z,96326.47
2023-02-27T01:48:35.829Z,96325.03
2023-02-27T01:51:08.986Z,96326.72
2023-02-27T01:53:38.867Z,96332.25
2023-02-27T01:56:18.768Z,96325.75
2023-02-27T01:58:48.107Z,96321.56
2023-02-27T02:01:16.473Z,96330.66
2023-02-27T02:03:52.725Z,96323.63
2023-02-27T02:06:21.846Z,96332.34
2023-02-27T02:08:51.176Z,96337.91
2023-02-27T02:11:21.131Z,96330.47
2023-02-27T02:13:51.396Z,96341.22
2023-02-27T02:16:24.286Z,96346.47
2023-02-27T02:19:20.575Z,96339.94
2023-02-27T02:22:20.707Z,96354.81
2023-02-27T02:25:25.186Z,96353.84
2023-02-27T02:28:16.266Z,96345.31
2023-02-27T02:31:11.074Z,96362.19
2023-02-27T02:34:03.158Z,96356.38
2023-02-27T02:37:08.107Z,96358.63
2023-02-27T02:39:43.057Z,96365.88
2023-02-27T02:42:38.750Z,96364.66
2023-02-27T02:45:23.109Z,96375.94
2023-02-27T02:48:01.967Z,96377.69
2023-02-27T02:50:53.402Z,96378.66
2023-02-27T02:53:51.297Z,96382.69
2023-02-27T02:56:24.168Z,96383.56
2023-02-27T02:59:08.863Z,96379.41
2023-02-27T03:02:01.148Z,96376.56
2023-02-27T03:04:51.987Z,96379.59
2023-02-27T03:07:32.720Z,96385.09
2023-02-27T03:10:09.899Z,96388.00
2023-02-27T03:12:41.499Z,96376.63
2023-02-27T03:15:41.419Z,96385.16
2023-02-27T03:18:19.007Z,96380.16
2023-02-27T03:20:51.809Z,96370.72
2023-02-27T03:23:38.115Z,96374.09
2023-02-27T03:26:06.737Z,96376.84
2023-02-27T03:28:37.344Z,96372.53
2023-02-27T03:31:43.139Z,96378.09
2023-02-27T03:34:33.726Z,96377.63
2023-02-27T03:37:21.814Z,96379.94
2023-02-27T03:40:00.875Z,96379.56
2023-02-27T03:43:07.945Z,96387.94
2023-02-27T03:45:59.512Z,96389.56
2023-02-27T03:48:26.692Z,96392.75
2023-02-27T03:50:55.571Z,96387.78
2023-02-27T03:53:33.396Z,96392.56
2023-02-27T03:56:03.131Z,96400.50
2023-02-27T03:58:30.466Z,96396.75
2023-02-27T04:00:57.737Z,96395.34
2023-02-27T04:03:25.241Z,96398.53
2023-02-27T04:05:52.844Z,96399.50
2023-02-27T04:08:40.368Z,96399.50
2023-02-27T04:11:16.051Z,96408.03
2023-02-27T04:13:48.861Z,96406.41
2023-02-27T04:16:35.181Z,96404.38
2023-02-27T04:19:41.114Z,96401.16
2023-02-27T04:22:13.815Z,96406.66
2023-02-27T04:25:07.353Z,96408.44
2023-02-27T04:27:40.406Z,96404.56
2023-02-27T04:30:36.358Z,96413.28
2023-02-27T04:33:13.784Z,96410.06
2023-02-27T04:36:03.878Z,96422.31
2023-02-27T04:39:03.240Z,96426.66
2023-02-27T04:42:03.529Z,96431.69
2023-02-27T04:44:33.614Z,96429.44
2023-02-27T04:47:03.510Z,96440.44
2023-02-27T04:49:53.510Z,96436.09
2023-02-27T04:52:35.030Z,96445.75
2023-02-27T04:55:29.611Z,96429.78
2023-02-27T04:58:09.142Z,96434.13
2023-02-27T05:00:40.014Z,96437.97
2023-02-27T05:03:33.240Z,96437.97
2023-02-27T05:06:02.612Z,96445.38
2023-02-27T05:08:32.674Z,96439.25
2023-02-27T05:11:31.487Z,96445.19
2023-02-27T05:14:30.541Z,96455.34
2023-02-27T05:17:09.727Z,96457.09
2023-02-27T05:19:41.184Z,96458.53
2023-02-27T05:22:22.864Z,96462.72
2023-02-27T05:24:53.111Z,96460.78
2023-02-27T05:27:20.310Z,96466.75
2023-02-27T05:29:52.555Z,96473.31
2023-02-27T05:32:28.678Z,96483.97
2023-02-27T05:35:18.670Z,96485.09
2023-02-27T05:38:12.581Z,96485.59
2023-02-27T05:40:52.027Z,96486.41
2023-02-27T05:43:28.700Z,96486.56
2023-02-27T05:46:01.738Z,96484.78
2023-02-27T05:48:36.738Z,96489.63
2023-02-27T05:51:07.057Z,96500.53
2023-02-27T05:53:40.266Z,96496.38
2023-02-27T05:56:09.424Z,96502.94
2023-02-27T05:58:50.742Z,96504.28
2023-02-27T06:01:18.205Z,96510.84
2023-02-27T06:03:45.547Z,96511.63
2023-02-27T06:06:16.704Z,96516.47
2023-02-27T06:08:45.383Z,96517.09
2023-02-27T06:11:13.670Z,96520.47
2023-02-27T06:13:42.108Z,96529.97
2023-02-27T06:16:14.168Z,96525.81
2023-02-27T06:18:41.384Z,96527.38
2023-02-27T06:21:13.585Z,96536.53
2023-02-27T06:23:40.865Z,96531.56
2023-02-27T06:26:08.113Z,96529.91
2023-02-27T06:28:35.349Z,96536.00
2023-02-27T06:31:03.459Z,96535.53
2023-02-27T06:33:30.663Z,96546.44
2023-02-27T06:35:58.100Z,96548.41
2023-02-27T06:38:25.595Z,96549.50
2023-02-27T06:40:52.863Z,96549.34
2023-02-27T06:43:23.066Z,96555.91
2023-02-27T06:45:53.511Z,96561.06
2023-02-27T06:48:20.904Z,96562.50
2023-02-27T06:50:56.582Z,96571.34
2023-02-27T06:53:24.813Z,96569.41
2023-02-27T06:55:52.026Z,96571.16
2023-02-27T06:58:19.618Z,96571.94
2023-02-27T07:00:46.863Z,96572.13
2023-02-27T07:03:15.136Z,96573.88
2023-02-27T07:05:42.457Z,96577.09
2023-02-27T07:08:10.265Z,96580.63
2023-02-27T07:10:37.817Z,96574.13
2023-02-27T07:13:05.057Z,96574.91
2023-02-27T07:15:32.257Z,96580.03
2023-02-27T07:17:59.461Z,96583.06
2023-02-27T07:20:26.668Z,96580.78
2023-02-27T07:22:53.857Z,96576.03
2023-02-27T07:25:21.099Z,96578.00
2023-02-27T07:27:50.068Z,96577.47
2023-02-27T07:30:18.697Z,96575.53
2023-02-27T07:32:46.576Z,96580.28
2023-02-27T07:35:13.938Z,96579.69
2023-02-27T07:37:41.179Z,96575.69
2023-02-27T07:40:09.418Z,96580.22
2023-02-27T07:42:36.564Z,96577.41
2023-02-27T07:45:04.265Z,96583.13
2023-02-27T07:47:31.985Z,96573.97
2023-02-27T07:49:59.185Z,96588.13
2023-02-27T07:52:26.581Z,96578.88
2023-02-27T07:54:53.921Z,96579.50
2023-02-27T07:57:21.270Z,96577.66
2023-02-27T07:59:48.783Z,96568.63
2023-02-27T08:02:16.110Z,96578.91
2023-02-27T08:04:43.361Z,96575.16
2023-02-27T08:07:10.662Z,96578.00
2023-02-27T08:09:37.892Z,96574.56
2023-02-27T08:12:05.301Z,96573.16
2023-02-27T08:14:32.548Z,96572.00
2023-02-27T08:17:00.900Z,96575.84
2023-02-27T08:19:28.186Z,96566.66
2023-02-27T08:21:55.743Z,96572.25
2023-02-27T08:24:23.104Z,96569.03
2023-02-27T08:26:50.312Z,96575.81
2023-02-27T08:29:17.783Z,96575.97
2023-02-27T08:31:45.394Z,96573.88
2023-02-27T08:34:14.073Z,96580.47
2023-02-27T08:36:41.578Z,96579.47
2023-02-27T08:39:09.846Z,96587.13
2023-02-27T08:41:37.040Z,96583.91
2023-02-27T08:44:04.833Z,96584.84
2023-02-27T08:46:32.058Z,96587.97
2023-02-27T08:48:59.418Z,96586.34
2023-02-27T08:51:27.024Z,96593.06
2023-02-27T08:53:59.205Z,96588.31
2023-02-27T08:56:28.214Z,96596.25
2023-02-27T08:58:56.305Z,96593.13
2023-02-27T09:01:24.076Z,96598.72
2023-02-27T09:03:51.362Z,96590.34
2023-02-27T09:06:18.577Z,96589.72
2023-02-27T09:08:45.820Z,96585.84
2023-02-27T09:11:13.099Z,96591.34
2023-02-27T09:13:40.219Z,96588.78
2023-02-27T09:16:07.617Z,96587.97
2023-02-27T09:18:34.905Z,96598.63
2023-02-27T09:21:02.139Z,96593.59
2023-02-27T09:23:29.338Z,96604.41
2023-02-27T09:25:56.544Z,96600.91
2023-02-27T09:28:23.743Z,96594.56
2023-02-27T09:30:51.099Z,96593.75
2023-02-27T09:33:18.299Z,96608.00
2023-02-27T09:35:45.690Z,96599.63
2023-02-27T09:38:13.978Z,96601.84
2023-02-27T09:40:42.117Z,96597.06
2023-02-27T09:43:19.096Z,96603.25
2023-02-27T09:45:50.323Z,96609.84
2023-02-27T09:48:20.500Z,96608.44
2023-02-27T09:50:52.996Z,96606.66
2023-02-27T09:53:40.400Z,96600.03
2023-02-27T09:56:22.832Z,96605.44
2023-02-27T09:59:14.620Z,96600.44
2023-02-27T10:01:51.383Z,96593.63
2023-02-27T10:04:18.785Z,96598.81
2023-02-27T10:07:19.698Z,96598.66
2023-02-27T10:09:56.594Z,96599.66
2023-02-27T10:12:42.220Z,96594.03
2023-02-27T10:15:38.501Z,96587.59
2023-02-27T10:18:26.071Z,96591.78
2023-02-27T10:20:59.142Z,96594.94
2023-02-27T10:23:58.663Z,96594.38
2023-02-27T10:26:30.630Z,96594.75
2023-02-27T10:29:03.021Z,96587.16
2023-02-27T10:31:33.886Z,96597.41
2023-02-27T10:34:01.625Z,96575.72
2023-02-27T10:36:33.998Z,96594.19
2023-02-27T10:39:08.157Z,96592.00
2023-02-27T10:41:37.105Z,96595.59
2023-02-27T10:44:05.276Z,96594.00
2023-02-27T10:46:34.912Z,96592.81
2023-02-27T10:49:05.826Z,96602.41
2023-02-27T10:51:38.353Z,96603.63
2023-02-27T10:54:26.686Z,96602.66
2023-02-27T10:57:03.378Z,96595.66
2023-02-27T10:59:35.746Z,96594.44
2023-02-27T11:02:25.426Z,96586.22
2023-02-27T11:04:59.143Z,96589.84
2023-02-27T11:07:44.857Z,96592.44
2023-02-27T11:10:14.740Z,96586.63
2023-02-27T11:12:56.615Z,96585.03
2023-02-27T11:15:26.420Z,96587.59
2023-02-27T11:17:55.304Z,96582.97
2023-02-27T11:20:36.437Z,96586.19
2023-02-27T11:23:20.069Z,96583.41
2023-02-27T11:25:47.823Z,96572.41
2023-02-27T11:28:20.140Z,96575.03
2023-02-27T11:31:01.346Z,96582.84
2023-02-27T11:33:32.006Z,96581.81
2023-02-27T11:35:59.814Z,96576.88
2023-02-27T11:38:29.742Z,96577.25
2023-02-27T11:41:05.981Z,96581.47
2023-02-27T11:43:47.187Z,96578.06
2023-02-27T11:46:43.287Z,96577.44
2023-02-27T11:49:25.022Z,96572.44
2023-02-27T11:52:12.223Z,96572.66
2023-02-27T11:55:01.940Z,96571.63
2023-02-27T11:57:39.622Z,96570.66
2023-02-27T12:00:33.501Z,96573.84
2023-02-27T12:13:35.343Z,96559.44
2023-02-27T12:16:32.740Z,96565.41
2023-02-27T12:19:00.263Z,96571.59
2023-02-27T12:21:32.425Z,96570.53
2023-02-27T12:24:05.783Z,96571.91
2023-02-27T12:26:37.744Z,96578.66
2023-02-27T12:29:24.945Z,96574.81
2023-02-27T12:31:54.646Z,96574.94
2023-02-27T12:34:34.580Z,96573.22
2023-02-27T12:37:11.674Z,96580.19
2023-02-27T12:39:40.697Z,96588.69
2023-02-27T12:42:23.027Z,96590.44
2023-02-27T12:45:00.031Z,96585.38
2023-02-27T12:47:37.621Z,96584.72
2023-02-27T12:50:15.872Z,96590.16
2023-02-27T12:52:43.017Z,96586.03
2023-02-27T12:55:21.791Z,96583.78
2023-02-27T12:58:24.583Z,96592.50
2023-02-27T13:00:54.588Z,96587.09
2023-02-27T13:03:28.697Z,96590.09
2023-02-27T13:06:07.827Z,96579.66
2023-02-27T13:08:53.181Z,96593.06
2023-02-27T13:11:32.150Z,96586.75
2023-02-27T13:14:07.701Z,96594.50
2023-02-27T13:16:43.588Z,96592.41
2023-02-27T13:19:13.748Z,96597.66
2023-02-27T13:21:51.906Z,96608.03
2023-02-27T13:24:27.095Z,96604.13
2023-02-27T13:27:48.587Z,96604.59
2023-02-27T13:30:26.985Z,96610.31
2023-02-27T13:33:51.107Z,96604.94
2023-02-27T13:36:18.270Z,96599.25
2023-02-27T13:38:50.753Z,96605.06
2023-02-27T13:41:20.818Z,96603.47
2023-02-27T13:43:52.376Z,96604.88
2023-02-27T13:46:34.593Z,96601.91
2023-02-27T13:49:04.785Z,96606.88
2023-02-27T13:51:47.074Z,96609.22
2023-02-27T13:54:14.354Z,96611.69
2023-02-27T13:56:49.463Z,96610.75
2023-02-27T13:59:21.534Z,96602.47
2023-02-27T14:01:55.959Z,96596.09
2023-02-27T14:04:26.589Z,96599.03
2023-02-27T14:07:21.820Z,96600.06
2023-02-27T14:09:53.200Z,96589.13
2023-02-27T14:12:45.769Z,96589.09
2023-02-27T14:15:25.380Z,96602.94
2023-02-27T14:18:11.482Z,96597.25
2023-02-27T14:20:41.353Z,96605.44
2023-02-27T14:23:17.531Z,96594.81
2023-02-27T14:25:54.296Z,96596.31
2023-02-27T14:28:32.783Z,96592.72
2023-02-27T14:31:04.490Z,96598.44
2023-02-27T14:33:46.540Z,96594.63
2023-02-27T14:36:19.225Z,96597.44
2023-02-27T14:38:47.618Z,96607.72
2023-02-27T14:41:33.417Z,96604.09
2023-02-27T14:44:00.981Z,96601.88
2023-02-27T14:46:31.225Z,96608.59
2023-02-27T14:49:01.020Z,96610.25
2023-02-27T14:51:34.901Z,96611.69
2023-02-27T14:54:14.306Z,96611.94
2023-02-27T14:56:53.946Z,96609.38
2023-02-27T14:59:21.190Z,96610.81
2023-02-27T15:01:48.464Z,96619.44
2023-02-27T15:04:20.760Z,96620.84
2023-02-27T15:06:50.665Z,96624.44
2023-02-27T15:09:45.026Z,96625.03
2023-02-27T15:12:20.830Z,96629.41
2023-02-27T15:14:52.438Z,96630.34
2023-02-27T15:17:25.712Z,96634.88
2023-02-27T15:19:58.828Z,96640.63
2023-02-27T15:22:38.887Z,96644.78
2023-02-27T15:25:08.456Z,96651.47
2023-02-27T15:27:37.823Z,96649.97
2023-02-27T15:30:05.766Z,96653.66
2023-02-27T15:32:43.323Z,96654.63
2023-02-27T15:35:19.280Z,96661.97
2023-02-27T15:37:53.553Z,96656.28
2023-02-27T15:40:24.664Z,96667.22
2023-02-27T15:42:53.628Z,96671.56
2023-02-27T15:45:25.024Z,96677.19
2023-02-27T15:47:52.465Z,96673.75
2023-02-27T15:50:26.639Z,96682.50
2023-02-27T15:53:00.713Z,96682.63
2023-02-27T15:55:55.950Z,96694.72
2023-02-27T15:58:30.610Z,96695.25
2023-02-27T16:01:01.982Z,96695.84
2023-02-27T16:03:50.822Z,96696.34
2023-02-27T16:06:27.985Z,96702.03
2023-02-27T16:08:57.979Z,96706.97
2023-02-27T16:11:31.069Z,96706.13
2023-02-27T16:13:59.019Z,96714.00
2023-02-27T16:16:36.327Z,96719.72
2023-02-27T16:19:24.249Z,96711.97
2023-02-27T16:22:12.340Z,96726.06
2023-02-27T16:24:39.347Z,96716.44
2023-02-27T16:27:07.141Z,96734.66
2023-02-27T16:29:44.550Z,96739.56
2023-02-27T16:32:29.812Z,96746.63
2023-02-27T16:35:15.424Z,96745.63
2023-02-27T16:37:43.786Z,96746.69
2023-02-27T16:40:16.835Z,96760.66
2023-02-27T16:42:44.826Z,96758.91
2023-02-27T16:45:21.745Z,96763.00
2023-02-27T16:47:50.803Z,96771.25
2023-02-27T16:50:39.769Z,96780.53
2023-02-27T16:53:08.120Z,96780.94
2023-02-27T16:55:38.698Z,96781.13
2023-02-27T16:58:06.717Z,96787.59
2023-02-27T17:00:34.512Z,96788.28
2023-02-27T17:03:01.697Z,96796.22
2023-02-27T17:05:28.988Z,96800.31
2023-02-27T17:07:55.948Z,96807.88
2023-02-27T17:10:25.782Z,96806.16
2023-02-27T17:12:53.480Z,96814.25
2023-02-27T17:15:21.356Z,96819.59
2023-02-27T17:17:48.586Z,96819.94
2023-02-27T17:20:15.845Z,96824.66
2023-02-27T17:22:44.995Z,96823.25
2023-02-27T17:25:13.863Z,96829.69
2023-02-27T17:27:43.784Z,96835.16
2023-02-27T17:30:11.997Z,96827.72
2023-02-27T17:32:39.237Z,96833.06
2023-02-27T17:35:06.829Z,96836.97
2023-02-27T17:37:34.027Z,96850.03
2023-02-27T17:40:04.729Z,96846.22
2023-02-27T17:42:32.908Z,96844.75
2023-02-27T17:45:01.516Z,96848.47
2023-02-27T17:47:28.777Z,96853.81
2023-02-27T17:49:55.909Z,96860.44
2023-02-27T17:52:23.388Z,96860.63
2023-02-27T17:54:50.752Z,96867.59
2023-02-27T17:57:17.837Z,96868.53
2023-02-27T17:59:44.986Z,96867.59
2023-02-27T18:02:15.591Z,96867.59
2023-02-27T18:04:43.225Z,96872.91
2023-02-27T18:07:10.477Z,96875.81
2023-02-27T18:09:37.715Z,96883.38
2023-02-27T18:12:05.267Z,96879.00
2023-02-27T18:14:32.492Z,96885.78
2023-02-27T18:16:59.983Z,96880.94
2023-02-27T18:19:27.259Z,96881.59
2023-02-27T18:21:54.429Z,96886.63
2023-02-27T18:24:21.875Z,96883.38
2023-02-27T18:26:49.574Z,96879.31
2023-02-27T18:29:18.108Z,96889.47
2023-02-27T18:31:50.411Z,96883.34
2023-02-27T18:34:17.626Z,96892.22
2023-02-27T18:36:44.785Z,96885.56
2023-02-27T18:39:11.980Z,96888.78
2023-02-27T18:41:39.628Z,96898.44
2023-02-27T18:44:08.138Z,96886.03
2023-02-27T18:46:35.735Z,96898.41
2023-02-27T18:49:03.100Z,96903.25
2023-02-27T18:51:30.311Z,96905.50
2023-02-27T18:53:59.942Z,96911.13
2023-02-27T18:56:30.804Z,96909.84
2023-02-27T18:59:02.243Z,96915.19
2023-02-27T19:01:33.149Z,96915.50
2023-02-27T19:04:05.037Z,96912.09
2023-02-27T19:06:34.662Z,96924.88
2023-02-27T19:09:04.031Z,96921.94
2023-02-27T19:11:34.979Z,96926.13
2023-02-27T19:14:04.662Z,96937.09
2023-02-27T19:16:32.717Z,96922.56
2023-02-27T19:19:01.708Z,96920.34
2023-02-27T19:21:29.563Z,96925.81
2023-02-27T19:23:57.202Z,96923.38
2023-02-27T19:26:25.221Z,96930.16
2023-02-27T19:28:54.279Z,96923.88
2023-02-27T19:31:23.893Z,96935.78
2023-02-27T19:33:51.619Z,96936.44
2023-02-27T19:36:23.800Z,96946.31
2023-02-27T19:38:52.808Z,96934.00
2023-02-27T19:41:20.939Z,96941.44
2023-02-27T19:43:48.982Z,96943.53
2023-02-27T19:46:20.188Z,96946.00
2023-02-27T19:48:48.302Z,96949.22
2023-02-27T19:51:16.750Z,96950.19
2023-02-27T19:53:46.350Z,96945.19
2023-02-27T19:56:15.850Z,96952.00
2023-02-27T19:58:43.156Z,96946.34
2023-02-27T20:01:11.048Z,96948.28
2023-02-27T20:03:43.177Z,96956.03
2023-02-27T20:06:24.063Z,96953.28
2023-02-27T20:08:52.059Z,96957.81
2023-02-27T20:11:20.988Z,96960.69
2023-02-27T20:13:49.420Z,96958.13
2023-02-27T20:16:20.091Z,96958.31
2023-02-27T20:18:48.100Z,96964.44
2023-02-27T20:21:18.301Z,96964.59
2023-02-27T20:23:46.921Z,96972.19
2023-02-27T20:26:14.181Z,96978.16
2023-02-27T20:28:42.227Z,96971.53
2023-02-27T20:31:10.931Z,96969.59
2023-02-27T20:33:38.269Z,96980.09
2023-02-27T20:36:06.459Z,96982.03
2023-02-27T20:38:34.431Z,96985.59
2023-02-27T20:41:01.593Z,96982.56
2023-02-27T20:43:29.660Z,96988.03
2023-02-27T20:45:57.184Z,96981.09
2023-02-27T20:48:24.540Z,96988.03
2023-02-27T20:50:51.564Z,96980.00
2023-02-27T20:53:18.784Z,96979.53
2023-02-27T20:55:49.752Z,96979.38
2023-02-27T20:58:17.029Z,96985.69
2023-02-27T21:00:44.299Z,96986.00
2023-02-27T21:03:11.427Z,96992.94
2023-02-27T21:05:38.664Z,96984.59
2023-02-27T21:08:05.795Z,96988.44
2023-02-27T21:10:33.424Z,96991.84
2023-02-27T21:13:00.626Z,96993.09
2023-02-27T21:15:27.996Z,96989.75
2023-02-27T21:17:55.192Z,96981.81
2023-02-27T21:20:22.544Z,96988.75
2023-02-27T21:22:49.862Z,96982.78
2023-02-27T21:25:17.021Z,96979.88
2023-02-27T21:27:44.229Z,96977.94
2023-02-27T21:30:12.424Z,96978.56
2023-02-27T21:32:39.581Z,96979.22
2023-02-27T21:35:07.383Z,96980.19
2023-02-27T21:37:34.864Z,96980.81
2023-02-27T21:40:04.520Z,96974.69
2023-02-27T21:42:32.047Z,96975.50
2023-02-27T21:44:59.305Z,96979.06
2023-02-27T21:47:26.620Z,96975.16
2023-02-27T21:49:53.909Z,96982.91
2023-02-27T21:52:21.141Z,96985.31
2023-02-27T21:54:48.500Z,96982.75
2023-02-27T21:57:15.700Z,96980.31
2023-02-27T21:59:43.036Z,96984.72
2023-02-27T22:02:13.978Z,96981.31
2023-02-27T22:04:41.219Z,96984.88
2023-02-27T22:07:10.529Z,96980.66
2023-02-27T22:09:38.780Z,96987.59
2023-02-27T22:12:06.076Z,96986.81
2023-02-27T22:14:33.238Z,96983.41
2023-02-27T22:17:00.545Z,96987.44
2023-02-27T22:19:27.703Z,96985.03
2023-02-27T22:21:54.822Z,96992.78
2023-02-27T22:24:22.060Z,96985.03
2023-02-27T22:26:50.552Z,96986.81
2023-02-27T22:29:18.308Z,96984.38
2023-02-27T22:31:46.178Z,96988.13
2023-02-27T22:34:18.781Z,96982.47
2023-02-27T22:36:48.950Z,96986.16
2023-02-27T22:39:16.153Z,96985.56
2023-02-27T22:41:43.540Z,96982.63
2023-02-27T22:44:13.984Z,96990.72
2023-02-27T22:46:47.819Z,96987.03
2023-02-27T22:49:19.711Z,96988.00
2023-02-27T22:51:50.984Z,96990.75
2023-02-27T22:54:20.757Z,96988.31
2023-02-27T22:56:51.022Z,96994.44
2023-02-27T22:59:18.259Z,96992.03
2023-02-27T23:01:45.721Z,96987.66
2023-02-27T23:04:13.175Z,96988.31
2023-02-27T23:06:41.218Z,96989.94
2023-02-27T23:09:11.064Z,96988.97
2023-02-27T23:11:39.379Z,96999.31
2023-02-27T23:14:06.857Z,96995.75
2023-02-27T23:16:34.176Z,96999.13
2023-02-27T23:19:02.332Z,96994.78
2023-02-27T23:21:36.862Z,96998.00
2023-02-27T23:24:14.749Z,97001.88
2023-02-27T23:26:47.820Z,97002.84
2023-02-27T23:29:15.317Z,97008.81
2023-02-27T23:31:42.676Z,97006.09
2023-02-27T23:34:10.497Z,97010.59
2023-02-27T23:36:39.322Z,97016.75
2023-02-27T23:39:07.504Z,97001.88
2023-02-27T23:41:34.980Z,97016.41
2023-02-27T23:44:20.823Z,97007.38
2023-02-27T23:46:48.140Z,97010.25
2023-02-27T23:49:15.261Z,97017.69
2023-02-27T23:51:42.777Z,97011.41
2023-02-27T23:54:10.788Z,97018.63
2023-02-27T23:56:38.102Z,97010.56
2023-02-27T23:59:06.807Z,97011.22
